Time;durP1;ratioP1;P1;durP2;ratioP2;P2;SDS_P1;SDS_P2;PMS_P1;PMS_P2;Temp;Humidity;BMP_temperature;BMP_pressure;BME280_temperature;BME280_humidity;BME280_pressure;Samples;Min_cycle;Max_cycle;Signal;HPM_P1;HPM_P2
2023/06/15 00:00:46;;;;;;;2.70;2.17;;;19.00;99.90;;;;;;5138792;28;20432;-55
2023/06/15 00:03:13;;;;;;;4.67;3.60;;;18.90;99.90;;;;;;5138869;28;20447;-55
2023/06/15 00:05:40;;;;;;;7.27;3.50;;;18.50;99.90;;;;;;5138202;28;20456;-55
2023/06/15 00:08:07;;;;;;;5.07;2.97;;;19.00;99.90;;;;;;5136716;28;20479;-57
2023/06/15 00:10:36;;;;;;;4.63;3.33;;;19.20;98.30;;;;;;5136962;28;20440;-55
2023/06/15 00:13:04;;;;;;;8.33;3.23;;;;;;;;;;5136235;28;20455;-54
2023/06/15 00:15:31;;;;;;;5.80;2.60;;;;;;;;;;5131844;28;20466;-54
2023/06/15 00:18:01;;;;;;;4.93;3.10;;;18.90;99.90;;;;;;5137798;28;20457;-54
2023/06/15 00:20:29;;;;;;;3.93;3.00;;;18.70;99.90;;;;;;5132123;28;20444;-49
2023/06/15 00:22:57;;;;;;;5.30;4.07;;;;;;;;;;5137089;28;20461;-53
2023/06/15 00:25:24;;;;;;;10.03;3.47;;;;;;;;;;5136566;28;20486;-54
2023/06/15 00:27:52;;;;;;;21.77;5.20;;;19.10;99.90;;;;;;5138330;28;20513;-54
2023/06/15 00:30:19;;;;;;;6.10;3.50;;;18.70;99.90;;;;;;5137881;28;20432;-53
2023/06/15 00:32:46;;;;;;;3.30;2.57;;;18.70;99.90;;;;;;5137998;28;20511;-51
2023/06/15 00:35:13;;;;;;;15.67;3.17;;;18.80;99.90;;;;;;5137824;28;20474;-53
2023/06/15 00:37:40;;;;;;;3.60;2.60;;;18.70;99.90;;;;;;5125573;28;20451;-55
2023/06/15 00:40:09;;;;;;;4.47;3.70;;;18.50;99.90;;;;;;5131691;28;20472;-55
2023/06/15 00:42:36;;;;;;;7.03;3.37;;;18.60;99.90;;;;;;5134967;28;20436;-51
2023/06/15 00:45:06;;;;;;;4.80;3.43;;;18.50;99.90;;;;;;5129343;28;20472;-54
2023/06/15 00:47:39;;;;;;;5.03;3.33;;;18.50;99.90;;;;;;5130886;28;20536;-51
2023/06/15 00:50:10;;;;;;;3.50;2.57;;;18.50;99.90;;;;;;5136540;28;20446;-49
2023/06/15 00:52:38;;;;;;;4.60;3.70;;;;;;;;;;5134873;28;20484;-56
2023/06/15 00:55:06;;;;;;;4.70;3.20;;;18.40;99.90;;;;;;5129823;28;20881;-54
2023/06/15 00:57:34;;;;;;;5.43;2.50;;;18.30;99.90;;;;;;5135290;28;20444;-53
2023/06/15 01:00:03;;;;;;;3.97;3.00;;;;;;;;;;5134970;28;20443;-54
2023/06/15 01:02:34;;;;;;;5.07;3.67;;;18.70;99.90;;;;;;5137276;28;20437;-53
2023/06/15 01:05:01;;;;;;;4.03;2.93;;;18.40;99.90;;;;;;5136942;28;20432;-54
2023/06/15 01:07:28;;;;;;;7.07;3.60;;;18.60;99.90;;;;;;5136862;28;20459;-53
2023/06/15 01:09:55;;;;;;;5.97;3.47;;;;;;;;;;5137539;28;20427;-54
2023/06/15 01:12:23;;;;;;;4.53;2.90;;;;;;;;;;5125861;28;20571;-53
2023/06/15 01:14:52;;;;;;;4.07;2.87;;;18.10;99.90;;;;;;5127369;28;20463;-50
2023/06/15 01:17:23;;;;;;;4.73;3.30;;;18.40;99.90;;;;;;5135590;28;20440;-56
2023/06/15 01:20:04;;;;;;;5.57;3.40;;;18.00;99.90;;;;;;5132767;28;20472;-52
2023/06/15 01:22:41;;;;;;;5.67;3.43;;;18.10;99.90;;;;;;5137388;28;20900;-49
2023/06/15 01:25:17;;;;;;;4.17;3.00;;;17.80;99.90;;;;;;5137466;28;20474;-53
2023/06/15 01:27:49;;;;;;;2.90;2.50;;;18.00;99.90;;;;;;5134257;28;20411;-52
2023/06/15 01:30:17;;;;;;;4.27;2.90;;;17.80;99.90;;;;;;5135820;28;20425;-54
2023/06/15 01:32:44;;;;;;;9.67;3.40;;;;;;;;;;5134275;28;20491;-52
2023/06/15 01:35:11;;;;;;;4.37;3.77;;;18.00;99.90;;;;;;5132291;28;20452;-54
2023/06/15 01:37:38;;;;;;;3.30;2.77;;;17.70;99.90;;;;;;5137280;28;20433;-48
2023/06/15 01:40:07;;;;;;;4.87;2.57;;;17.90;99.90;;;;;;5137092;28;20432;-48
2023/06/15 01:42:36;;;;;;;5.83;2.70;;;17.70;99.90;;;;;;5135884;28;20417;-55
2023/06/15 01:45:05;;;;;;;6.77;2.93;;;18.10;99.90;;;;;;5136754;28;20420;-50
2023/06/15 01:47:33;;;;;;;3.07;2.70;;;;;;;;;;5137345;28;20448;-51
2023/06/15 01:50:01;;;;;;;5.27;2.80;;;17.70;99.90;;;;;;5131678;28;20479;-49
2023/06/15 01:52:28;;;;;;;6.67;3.30;;;17.80;99.90;;;;;;5135004;28;20525;-50
2023/06/15 01:54:55;;;;;;;4.23;2.73;;;17.60;99.90;;;;;;5122615;28;20444;-53
2023/06/15 01:57:22;;;;;;;3.60;3.10;;;17.50;99.90;;;;;;5135328;28;20448;-49
2023/06/15 01:59:51;;;;;;;6.07;3.30;;;17.80;99.90;;;;;;5137312;28;20486;-50
2023/06/15 02:02:19;;;;;;;6.43;2.93;;;17.60;99.90;;;;;;5130102;28;20440;-51
2023/06/15 02:04:46;;;;;;;3.73;2.80;;;17.50;99.90;;;;;;5127646;28;20480;-50
2023/06/15 02:07:13;;;;;;;4.23;3.40;;;17.50;99.90;;;;;;5137009;28;20443;-49
2023/06/15 02:09:39;;;;;;;5.60;3.70;;;17.40;99.90;;;;;;5137060;28;20437;-51
2023/06/15 02:12:07;;;;;;;5.60;3.40;;;17.60;99.90;;;;;;5136680;28;20460;-52
2023/06/15 02:14:34;;;;;;;6.03;3.33;;;17.20;99.90;;;;;;5137606;28;20498;-53
2023/06/15 02:17:02;;;;;;;4.47;3.00;;;17.50;99.90;;;;;;5134677;28;20496;-52
2023/06/15 02:19:30;;;;;;;3.27;2.70;;;17.30;99.90;;;;;;5136812;28;20495;-53
2023/06/15 02:21:58;;;;;;;3.67;2.70;;;16.90;99.90;;;;;;5133941;28;20461;-48
2023/06/15 02:24:25;;;;;;;3.00;2.70;;;16.80;99.90;;;;;;5136741;28;20476;-52
2023/06/15 02:26:52;;;;;;;2.80;2.50;;;;;;;;;;5134491;28;20440;-49
2023/06/15 02:29:19;;;;;;;4.50;2.60;;;16.80;99.90;;;;;;5136352;28;20473;-53
2023/06/15 02:31:45;;;;;;;18.90;3.40;;;17.00;99.90;;;;;;5136833;28;20487;-48
2023/06/15 02:34:12;;;;;;;4.63;3.20;;;17.00;99.90;;;;;;5134449;28;20468;-49
2023/06/15 02:36:41;;;;;;;6.63;3.23;;;16.70;99.90;;;;;;5136466;28;20439;-51
2023/06/15 02:39:08;;;;;;;5.30;3.50;;;;;;;;;;5135007;28;20499;-52
2023/06/15 02:41:35;;;;;;;3.57;2.83;;;16.90;99.90;;;;;;5134988;28;20440;-51
2023/06/15 02:44:02;;;;;;;4.77;2.67;;;17.00;99.90;;;;;;5135192;28;20479;-53
2023/06/15 02:46:29;;;;;;;4.30;3.90;;;16.90;99.90;;;;;;5126985;28;20518;-51
2023/06/15 02:48:57;;;;;;;3.30;2.90;;;16.70;99.90;;;;;;5133038;28;20445;-52
2023/06/15 02:51:23;;;;;;;4.30;2.70;;;17.10;99.90;;;;;;5133653;28;20448;-54
2023/06/15 02:53:52;;;;;;;3.50;2.87;;;16.60;99.90;;;;;;5131860;28;20551;-56
2023/06/15 02:56:19;;;;;;;4.63;3.10;;;;;;;;;;5133243;28;20527;-56
2023/06/15 02:58:47;;;;;;;4.43;3.33;;;16.80;99.90;;;;;;5133991;28;20504;-54
2023/06/15 03:01:16;;;;;;;4.23;2.90;;;16.90;99.90;;;;;;5137086;28;20448;-52
2023/06/15 03:03:43;;;;;;;5.73;2.60;;;16.70;99.90;;;;;;5138741;28;20432;-53
2023/06/15 03:06:14;;;;;;;4.10;2.47;;;16.90;99.90;;;;;;5137045;28;20441;-50
2023/06/15 03:08:42;;;;;;;4.70;2.97;;;;;;;;;;5139125;28;20416;-54
2023/06/15 03:11:13;;;;;;;4.10;3.20;;;16.90;99.90;;;;;;5136608;28;20449;-50
2023/06/15 03:13:40;;;;;;;4.03;3.13;;;;;;;;;;5139014;28;20492;-52
2023/06/15 03:16:07;;;;;;;5.47;3.10;;;;;;;;;;5135302;28;20437;-52
2023/06/15 03:18:34;;;;;;;3.57;3.10;;;16.80;99.90;;;;;;5136626;28;20437;-50
2023/06/15 03:21:01;;;;;;;4.40;2.83;;;;;;;;;;5137231;28;20416;-49
2023/06/15 03:23:28;;;;;;;3.90;3.10;;;17.00;99.90;;;;;;5138316;28;20443;-54
2023/06/15 03:25:55;;;;;;;5.27;3.47;;;;;;;;;;5137692;28;20440;-53
2023/06/15 03:28:24;;;;;;;3.67;3.13;;;16.90;99.90;;;;;;5138446;28;20455;-47
2023/06/15 03:30:52;;;;;;;6.00;3.10;;;;;;;;;;5139355;28;20447;-50
2023/06/15 03:33:22;;;;;;;4.23;3.20;;;17.00;99.90;;;;;;5137635;28;20499;-50
2023/06/15 03:35:49;;;;;;;4.03;2.97;;;16.80;99.90;;;;;;5138413;28;20877;-54
2023/06/15 03:38:17;;;;;;;4.77;3.70;;;17.00;99.90;;;;;;5137671;28;20488;-48
2023/06/15 03:40:44;;;;;;;5.23;3.47;;;16.80;99.90;;;;;;5138586;28;20463;-52
2023/06/15 03:43:11;;;;;;;4.57;3.07;;;;;;;;;;5139317;28;20428;-50
2023/06/15 03:45:39;;;;;;;5.20;3.50;;;17.00;99.90;;;;;;5136848;28;20441;-50
2023/06/15 03:48:06;;;;;;;4.00;3.17;;;16.90;99.90;;;;;;5138673;28;20431;-47
2023/06/15 03:50:33;;;;;;;6.20;3.00;;;17.20;99.90;;;;;;5139035;28;20432;-54
2023/06/15 03:53:01;;;;;;;9.20;3.53;;;17.00;99.90;;;;;;5139104;28;20514;-51
2023/06/15 03:55:29;;;;;;;4.10;3.07;;;;;;;;;;5134920;28;20478;-55
2023/06/15 03:57:56;;;;;;;4.40;3.10;;;;;;;;;;5126999;28;20448;-54
2023/06/15 04:00:23;;;;;;;3.93;3.03;;;16.90;99.90;;;;;;5135673;28;20456;-54
2023/06/15 04:02:52;;;;;;;5.10;3.33;;;17.00;99.90;;;;;;5131458;28;20484;-53
2023/06/15 04:05:19;;;;;;;5.30;2.50;;;17.10;99.90;;;;;;5137512;28;20530;-54
2023/06/15 04:07:47;;;;;;;2.67;2.47;;;;;;;;;;5133224;28;20536;-51
2023/06/15 04:10:13;;;;;;;5.63;2.90;;;16.50;99.90;;;;;;5124282;28;20436;-54
2023/06/15 04:12:40;;;;;;;4.20;3.23;;;16.70;99.90;;;;;;5133059;28;20510;-56
2023/06/15 04:15:08;;;;;;;3.83;2.70;;;17.00;99.90;;;;;;5135780;28;20441;-55
2023/06/15 04:17:35;;;;;;;3.00;2.50;;;16.70;99.90;;;;;;5137200;28;20448;-54
2023/06/15 04:20:05;;;;;;;3.60;3.10;;;17.40;99.90;;;;;;5137262;28;20478;-49
2023/06/15 04:22:32;;;;;;;4.80;3.20;;;16.60;99.90;;;;;;5137549;28;20440;-51
2023/06/15 04:24:58;;;;;;;5.33;3.00;;;16.90;99.90;;;;;;5132311;28;20508;-53
2023/06/15 04:27:27;;;;;;;3.60;3.10;;;16.80;99.90;;;;;;5128447;28;20929;-53
2023/06/15 04:29:54;;;;;;;5.30;3.77;;;16.90;99.90;;;;;;5136883;28;20444;-52
2023/06/15 04:32:25;;;;;;;4.33;3.43;;;;;;;;;;5137913;28;20503;-52
2023/06/15 04:34:54;;;;;;;3.90;3.07;;;17.00;99.90;;;;;;5136378;28;20440;-51
2023/06/15 04:37:28;;;;;;;18.30;2.90;;;16.80;99.90;;;;;;5135071;28;20449;-48
2023/06/15 04:39:56;;;;;;;10.33;3.53;;;16.70;99.90;;;;;;5137426;28;20474;-47
2023/06/15 04:42:24;;;;;;;6.10;3.30;;;;;;;;;;5136441;28;20433;-43
2023/06/15 04:44:52;;;;;;;9.90;3.00;;;;;;;;;;5137938;28;20468;-45
2023/06/15 04:47:18;;;;;;;4.00;2.80;;;17.10;99.90;;;;;;5137462;28;20528;-50
2023/06/15 04:49:45;;;;;;;4.77;2.93;;;17.30;99.90;;;;;;5137049;28;20437;-49
2023/06/15 04:52:12;;;;;;;3.60;2.60;;;17.50;99.90;;;;;;5137629;28;20473;-46
2023/06/15 04:54:40;;;;;;;4.30;3.10;;;17.60;99.90;;;;;;5137824;28;20437;-45
2023/06/15 04:57:08;;;;;;;3.90;3.13;;;17.50;99.90;;;;;;5137424;28;20447;-46
2023/06/15 04:59:38;;;;;;;3.60;2.80;;;17.60;99.90;;;;;;5137421;28;20446;-46
2023/06/15 05:02:05;;;;;;;3.37;2.77;;;17.50;99.90;;;;;;5137021;28;20444;-46
2023/06/15 05:04:32;;;;;;;3.67;3.13;;;17.80;99.90;;;;;;5137593;28;20437;-48
2023/06/15 05:07:00;;;;;;;4.73;2.70;;;17.90;99.90;;;;;;5137602;28;20468;-47
2023/06/15 05:09:27;;;;;;;3.93;2.70;;;17.90;99.90;;;;;;5137009;28;20456;-49
2023/06/15 05:11:56;;;;;;;6.73;2.70;;;18.00;99.90;;;;;;5136700;28;20421;-51
2023/06/15 05:14:26;;;;;;;5.30;3.13;;;17.90;99.90;;;;;;5137182;28;20488;-48
2023/06/15 05:16:53;;;;;;;3.30;3.00;;;18.40;99.90;;;;;;5136278;28;20436;-47
2023/06/15 05:19:20;;;;;;;3.67;3.37;;;17.90;99.90;;;;;;5137154;28;20463;-52
2023/06/15 05:21:47;;;;;;;4.43;2.77;;;;;;;;;;5137386;28;20472;-46
2023/06/15 05:24:14;;;;;;;3.43;2.83;;;18.30;99.90;;;;;;5137138;28;20421;-47
2023/06/15 05:26:41;;;;;;;8.20;2.93;;;18.20;99.90;;;;;;5137548;28;20440;-49
2023/06/15 05:29:09;;;;;;;5.43;3.17;;;18.20;99.90;;;;;;5136942;28;20511;-52
2023/06/15 05:31:36;;;;;;;5.57;3.33;;;18.30;99.90;;;;;;5136685;28;20424;-55
2023/06/15 05:34:03;;;;;;;4.80;3.03;;;18.10;99.90;;;;;;5136599;28;20488;-49
2023/06/15 05:36:33;;;;;;;6.23;2.90;;;18.30;99.90;;;;;;5137023;28;20459;-53
2023/06/15 05:39:00;;;;;;;7.13;3.70;;;18.40;99.90;;;;;;5136727;28;20444;-51
2023/06/15 05:41:27;;;;;;;3.37;3.07;;;17.90;99.90;;;;;;5137244;28;20425;-53
2023/06/15 05:43:54;;;;;;;5.00;3.00;;;18.10;99.90;;;;;;5137083;28;20440;-49
2023/06/15 05:46:22;;;;;;;6.87;3.13;;;18.10;99.90;;;;;;5135966;28;20461;-49
2023/06/15 05:48:49;;;;;;;5.83;3.67;;;18.10;99.90;;;;;;5136211;28;20436;-55
2023/06/15 05:51:16;;;;;;;4.60;3.30;;;18.20;99.90;;;;;;5137200;28;20970;-54
2023/06/15 05:53:43;;;;;;;3.73;3.00;;;18.30;99.90;;;;;;5136796;28;20495;-53
2023/06/15 05:56:10;;;;;;;2.87;2.40;;;;;;;;;;5136910;28;20493;-54
2023/06/15 05:58:38;;;;;;;3.13;2.60;;;18.30;99.90;;;;;;5136740;28;20432;-53
2023/06/15 06:01:05;;;;;;;3.80;3.10;;;18.10;99.90;;;;;;5136952;28;20441;-52
2023/06/15 06:03:35;;;;;;;6.97;3.60;;;18.30;99.90;;;;;;5136664;28;20442;-50
2023/06/15 06:06:04;;;;;;;4.07;2.80;;;18.60;99.90;;;;;;5136818;28;20491;-50
2023/06/15 06:08:34;;;;;;;4.80;2.87;;;18.50;99.90;;;;;;5136718;28;20456;-53
2023/06/15 06:11:03;;;;;;;7.43;3.33;;;;;;;;;;5136861;28;20417;-52
2023/06/15 06:13:31;;;;;;;3.03;2.70;;;;;;;;;;5136786;28;20463;-53
2023/06/15 06:15:57;;;;;;;5.60;3.40;;;18.50;99.90;;;;;;5137101;28;20437;-47
2023/06/15 06:18:24;;;;;;;3.43;2.90;;;18.50;99.90;;;;;;5136537;28;20447;-48
2023/06/15 06:20:53;;;;;;;4.13;2.90;;;18.60;99.90;;;;;;5136240;28;20453;-55
2023/06/15 06:23:22;;;;;;;3.60;2.90;;;19.00;99.90;;;;;;5139468;28;20444;-54
2023/06/15 06:25:49;;;;;;;6.37;2.80;;;;;;;;;;5140094;28;20444;-55
2023/06/15 06:28:16;;;;;;;4.53;3.00;;;18.20;99.90;;;;;;5140553;28;20433;-55
2023/06/15 06:30:43;;;;;;;5.57;3.23;;;19.00;99.90;;;;;;5139984;28;20428;-56
2023/06/15 06:33:10;;;;;;;7.00;3.00;;;18.70;99.90;;;;;;5139947;28;20476;-56
2023/06/15 06:35:37;;;;;;;5.13;3.30;;;18.50;99.90;;;;;;5140441;28;20437;-49
2023/06/15 06:38:05;;;;;;;4.27;3.07;;;18.70;99.90;;;;;;5140346;28;20444;-51
2023/06/15 06:40:32;;;;;;;3.80;2.97;;;;;;;;;;5140262;28;20464;-53
2023/06/15 06:42:59;;;;;;;6.97;2.87;;;;;;;;;;5140488;28;20479;-54
2023/06/15 06:45:27;;;;;;;7.60;3.40;;;19.50;99.90;;;;;;5140053;28;20424;-54
2023/06/15 06:47:57;;;;;;;6.00;3.20;;;19.10;99.90;;;;;;5139910;28;20432;-52
2023/06/15 06:50:24;;;;;;;4.80;2.87;;;19.20;99.90;;;;;;5140598;28;20429;-51
2023/06/15 06:52:51;;;;;;;4.23;3.73;;;;;;;;;;5140134;28;20960;-54
2023/06/15 06:55:19;;;;;;;4.73;3.30;;;19.50;99.90;;;;;;5140577;28;20463;-50
2023/06/15 06:57:47;;;;;;;6.00;2.70;;;;;;;;;;5140217;28;20428;-54
2023/06/15 07:00:15;;;;;;;6.70;2.80;;;19.90;99.90;;;;;;5140149;28;20444;-54
2023/06/15 07:02:42;;;;;;;8.70;3.07;;;;;;;;;;5139901;28;20436;-57
2023/06/15 07:05:09;;;;;;;5.43;2.87;;;20.00;99.90;;;;;;5140194;28;20464;-55
2023/06/15 07:07:37;;;;;;;3.20;2.60;;;;;;;;;;5139732;28;20441;-51
2023/06/15 07:10:04;;;;;;;6.77;3.73;;;19.90;99.90;;;;;;5139631;28;20428;-53
2023/06/15 07:12:32;;;;;;;5.10;3.87;;;20.40;99.90;;;;;;5139401;28;20455;-51
2023/06/15 07:14:59;;;;;;;3.83;3.50;;;20.60;99.90;;;;;;5139498;28;20519;-52
2023/06/15 07:17:26;;;;;;;5.90;3.43;;;21.40;99.90;;;;;;5139618;28;20437;-53
2023/06/15 07:19:53;;;;;;;5.53;2.87;;;22.40;99.90;;;;;;5139148;28;20456;-53
2023/06/15 07:22:21;;;;;;;4.43;2.90;;;24.60;99.90;;;;;;5139007;28;20440;-55
2023/06/15 07:24:48;;;;;;;6.27;3.70;;;25.80;99.90;;;;;;5137979;28;20437;-56
2023/06/15 07:27:16;;;;;;;5.90;3.60;;;27.20;99.90;;;;;;5137524;28;20440;-53
2023/06/15 07:29:45;;;;;;;3.37;3.07;;;27.60;99.90;;;;;;5136549;28;20444;-55
2023/06/15 07:32:12;;;;;;;12.10;7.93;;;27.70;95.80;;;;;;5135298;28;20444;-56
2023/06/15 07:34:45;;;;;;;6.73;3.50;;;28.00;82.70;;;;;;5134955;28;20484;-52
2023/06/15 07:37:12;;;;;;;9.87;3.87;;;;;;;;;;5135533;28;20448;-54
2023/06/15 07:39:40;;;;;;;5.30;4.20;;;28.40;99.60;;;;;;5136733;28;20471;-56
2023/06/15 07:42:08;;;;;;;8.87;3.73;;;29.20;98.50;;;;;;5135367;28;20466;-57
2023/06/15 07:44:36;;;;;;;4.13;3.73;;;;;;;;;;5130166;28;20827;-54
2023/06/15 07:47:06;;;;;;;5.70;3.27;;;30.20;93.20;;;;;;5136086;28;20461;-57
2023/06/15 07:49:33;;;;;;;6.30;3.73;;;30.20;71.50;;;;;;5135028;28;20509;-57
2023/06/15 07:52:00;;;;;;;4.27;3.73;;;29.80;92.50;;;;;;5134901;28;20432;-56
2023/06/15 07:54:27;;;;;;;5.20;3.80;;;28.40;92.20;;;;;;5133253;28;20472;-51
2023/06/15 07:56:55;;;;;;;8.80;3.07;;;27.70;97.90;;;;;;5134388;28;20471;-52
2023/06/15 07:59:22;;;;;;;4.23;3.60;;;;;;;;;;5135128;28;20478;-52
2023/06/15 08:01:49;;;;;;;4.57;3.50;;;;;;;;;;5135903;28;20441;-54
2023/06/15 08:04:17;;;;;;;5.40;4.10;;;25.20;99.90;;;;;;5135291;28;20436;-55
2023/06/15 08:06:45;;;;;;;4.77;3.53;;;;;;;;;;5135776;28;20480;-57
2023/06/15 08:09:12;;;;;;;6.60;3.40;;;26.10;97.50;;;;;;5135998;28;20449;-56
2023/06/15 08:11:39;;;;;;;5.10;3.70;;;26.40;99.90;;;;;;5135155;28;20474;-53
2023/06/15 08:14:06;;;;;;;5.40;3.10;;;27.10;99.90;;;;;;5133115;28;20523;-55
2023/06/15 08:16:33;;;;;;;5.97;3.50;;;27.90;96.90;;;;;;5135005;28;20454;-57
2023/06/15 08:19:00;;;;;;;4.10;3.67;;;29.30;97.00;;;;;;5134071;28;20444;-54
2023/06/15 08:21:28;;;;;;;4.10;3.43;;;29.90;95.10;;;;;;5134613;28;20539;-56
2023/06/15 08:23:55;;;;;;;4.03;3.63;;;29.90;93.40;;;;;;5133420;28;20467;-57
2023/06/15 08:26:22;;;;;;;9.70;4.07;;;29.50;91.90;;;;;;5133757;28;20451;-56
2023/06/15 08:28:49;;;;;;;3.40;3.10;;;29.10;96.40;;;;;;5134673;28;20803;-53
2023/06/15 08:31:16;;;;;;;5.40;3.70;;;28.50;97.30;;;;;;5134291;28;20433;-56
2023/06/15 08:33:43;;;;;;;4.83;3.33;;;28.60;91.70;;;;;;5134296;28;20484;-56
2023/06/15 08:36:11;;;;;;;4.37;3.93;;;28.40;94.20;;;;;;5134238;28;20468;-56
2023/06/15 08:38:39;;;;;;;5.00;3.53;;;27.80;93.80;;;;;;5134457;28;20452;-55
2023/06/15 08:41:06;;;;;;;4.30;3.60;;;28.20;80.40;;;;;;5134126;28;20483;-56
2023/06/15 08:43:36;;;;;;;4.70;3.33;;;27.90;73.50;;;;;;5134878;28;20435;-55
2023/06/15 08:46:05;;;;;;;9.53;3.53;;;27.20;73.20;;;;;;5133250;28;20853;-55
2023/06/15 08:48:34;;;;;;;5.63;3.53;;;27.90;97.50;;;;;;5133869;28;20467;-57
2023/06/15 08:51:01;;;;;;;3.93;3.37;;;28.30;93.60;;;;;;5134553;28;20476;-57
2023/06/15 08:53:31;;;;;;;5.80;4.07;;;28.50;95.90;;;;;;5134537;28;21033;-53
2023/06/15 08:55:59;;;;;;;4.27;3.53;;;29.30;92.40;;;;;;5134215;28;20432;-52
2023/06/15 08:58:26;;;;;;;4.80;3.70;;;29.40;93.60;;;;;;5133584;28;20468;-55
2023/06/15 09:00:57;;;;;;;4.20;3.80;;;30.00;76.90;;;;;;5131404;28;20460;-57
2023/06/15 09:03:24;;;;;;;5.07;4.57;;;;;;;;;;5122215;28;20444;-57
2023/06/15 09:05:51;;;;;;;5.10;4.60;;;;;;;;;;5133833;28;20444;-56
2023/06/15 09:08:18;;;;;;;6.50;4.10;;;31.50;92.10;;;;;;5135780;28;20444;-55
2023/06/15 09:10:45;;;;;;;8.70;5.90;;;32.50;91.20;;;;;;5135263;28;20470;-57
2023/06/15 09:13:17;;;;;;;6.80;4.00;;;32.90;85.70;;;;;;5134642;28;20429;-53
2023/06/15 09:15:50;;;;;;;11.10;4.13;;;;;;;;;;5134881;28;20425;-58
2023/06/15 09:18:17;;;;;;;8.10;3.60;;;33.40;84.60;;;;;;5133186;28;20421;-53
2023/06/15 09:20:44;;;;;;;7.00;4.13;;;34.10;73.80;;;;;;5136402;28;20465;-52
2023/06/15 09:23:13;;;;;;;3.67;3.33;;;32.90;55.00;;;;;;5129543;28;20450;-55
2023/06/15 09:25:41;;;;;;;6.50;3.80;;;33.60;81.40;;;;;;5131981;28;20503;-54
2023/06/15 09:28:08;;;;;;;19.63;13.70;;;33.20;80.80;;;;;;5136486;28;20468;-58
2023/06/15 09:30:38;;;;;;;6.77;4.13;;;32.10;56.70;;;;;;5130929;28;20527;-57
2023/06/15 09:33:12;;;;;;;6.03;3.73;;;31.20;78.30;;;;;;5129194;28;20437;-55
2023/06/15 09:35:55;;;;;;;4.97;3.53;;;30.20;55.70;;;;;;5134620;28;20460;-55
2023/06/15 09:38:22;;;;;;;6.67;5.00;;;29.20;83.10;;;;;;5133962;28;20505;-59
2023/06/15 09:40:50;;;;;;;5.47;4.30;;;28.90;92.10;;;;;;5134402;28;20470;-57
2023/06/15 09:43:18;;;;;;;5.30;4.47;;;27.90;92.60;;;;;;5134486;28;20431;-54
2023/06/15 09:45:56;;;;;;;7.07;4.30;;;27.60;90.10;;;;;;5134852;28;20448;-55
2023/06/15 09:48:23;;;;;;;9.13;4.67;;;;;;;;;;5134671;28;20471;-55
2023/06/15 09:50:50;;;;;;;5.70;5.03;;;26.20;90.50;;;;;;5135736;28;20822;-54
2023/06/15 09:53:18;;;;;;;6.97;5.53;;;26.10;95.10;;;;;;5126092;28;20432;-57
2023/06/15 09:55:47;;;;;;;6.67;4.87;;;25.70;95.30;;;;;;5128485;28;20508;-56
2023/06/15 09:58:14;;;;;;;5.63;3.80;;;;;;;;;;5139428;28;20917;-56
2023/06/15 10:00:45;;;;;;;3.93;3.53;;;24.90;65.30;;;;;;5140743;28;20447;-56
2023/06/15 10:03:19;;;;;;;6.13;4.60;;;25.10;91.80;;;;;;5138678;28;20463;-56
2023/06/15 10:05:48;;;;;;;5.43;3.90;;;24.50;66.10;;;;;;5138648;28;20416;-58
2023/06/15 10:08:19;;;;;;;3.67;3.23;;;24.30;66.00;;;;;;5136736;28;20509;-56
2023/06/15 10:10:47;;;;;;;6.00;4.43;;;23.90;92.40;;;;;;5140153;28;20484;-54
2023/06/15 10:13:22;;;;;;;7.67;4.00;;;24.20;92.80;;;;;;5136899;28;20449;-56
2023/06/15 10:15:55;;;;;;;6.70;4.40;;;24.20;67.80;;;;;;5136661;28;20484;-52
2023/06/15 10:18:26;;;;;;;11.13;4.53;;;24.30;96.80;;;;;;5139839;28;20454;-55
2023/06/15 10:20:54;;;;;;;8.17;4.73;;;24.00;96.90;;;;;;5140686;28;20435;-55
2023/06/15 10:23:25;;;;;;;5.17;4.00;;;23.70;95.50;;;;;;5139614;28;20445;-57
2023/06/15 10:25:55;;;;;;;5.20;4.70;;;;;;;;;;5136918;28;20819;-56
2023/06/15 10:28:23;;;;;;;5.80;4.17;;;23.80;99.90;;;;;;5139642;28;20461;-55
2023/06/15 10:30:58;;;;;;;15.40;5.50;;;23.70;75.70;;;;;;5140216;28;20495;-56
2023/06/15 10:33:34;;;;;;;8.27;4.40;;;23.70;87.00;;;;;;5137435;28;20424;-57
2023/06/15 10:36:09;;;;;;;5.33;4.50;;;23.70;98.70;;;;;;5139580;28;20468;-55
2023/06/15 10:38:43;;;;;;;5.47;4.93;;;23.60;97.20;;;;;;5138047;28;20424;-54
2023/06/15 10:41:11;;;;;;;5.13;4.57;;;23.70;99.00;;;;;;5137886;28;20445;-49
2023/06/15 10:43:40;;;;;;;5.60;4.27;;;24.10;96.90;;;;;;5139666;28;20444;-54
2023/06/15 10:46:27;;;;;;;5.13;3.83;;;23.90;99.90;;;;;;5139183;28;20441;-52
2023/06/15 10:48:55;;;;;;;4.10;3.70;;;24.30;99.00;;;;;;5139161;28;20462;-51
2023/06/15 10:51:22;;;;;;;5.50;4.20;;;;;;;;;;5136069;28;20452;-51
2023/06/15 10:53:49;;;;;;;5.90;3.83;;;23.70;99.60;;;;;;5138650;28;20436;-54
2023/06/15 10:56:18;;;;;;;5.10;3.60;;;23.60;95.80;;;;;;5137081;28;20468;-52
2023/06/15 10:58:55;;;;;;;4.63;3.40;;;23.50;74.60;;;;;;5137682;28;20447;-52
2023/06/15 11:01:23;;;;;;;3.87;3.47;;;23.40;74.40;;;;;;5137550;28;20416;-52
2023/06/15 11:03:51;;;;;;;4.30;3.70;;;23.40;96.50;;;;;;5139263;28;20513;-51
2023/06/15 11:06:21;;;;;;;6.07;4.20;;;23.20;96.20;;;;;;5138895;28;20500;-53
2023/06/15 11:08:49;;;;;;;10.03;4.13;;;23.60;98.20;;;;;;5138170;28;20457;-49
2023/06/15 11:11:19;;;;;;;10.07;4.20;;;23.20;94.80;;;;;;5138730;28;20436;-56
2023/06/15 11:13:58;;;;;;;4.67;3.20;;;23.20;77.30;;;;;;5138644;28;20452;-51
2023/06/15 11:16:27;;;;;;;5.37;3.73;;;23.10;96.30;;;;;;5138118;28;20460;-52
2023/06/15 11:18:58;;;;;;;3.83;3.27;;;22.90;96.10;;;;;;5138203;28;20433;-50
2023/06/15 11:21:28;;;;;;;4.90;3.57;;;22.70;95.00;;;;;;5138460;28;20425;-51
2023/06/15 11:23:57;;;;;;;5.17;3.10;;;22.70;99.20;;;;;;5138732;28;20441;-53
2023/06/15 11:26:27;;;;;;;7.50;2.90;;;22.70;95.70;;;;;;5136925;28;20444;-54
2023/06/15 11:28:57;;;;;;;3.53;3.23;;;23.20;81.10;;;;;;5137120;28;20470;-50
2023/06/15 11:31:26;;;;;;;5.93;3.73;;;22.80;74.80;;;;;;5135752;28;20421;-53
2023/06/15 11:33:53;;;;;;;4.07;3.13;;;23.20;98.40;;;;;;5138002;28;20436;-52
2023/06/15 11:36:21;;;;;;;7.47;3.00;;;;;;;;;;5137990;28;20549;-53
2023/06/15 11:38:49;;;;;;;5.30;3.90;;;22.70;98.10;;;;;;5136936;28;20444;-56
2023/06/15 11:41:16;;;;;;;4.80;2.63;;;;;;;;;;5137316;28;20439;-51
2023/06/15 11:43:46;;;;;;;4.30;3.47;;;23.00;99.60;;;;;;5138018;28;20973;-57
2023/06/15 11:46:17;;;;;;;6.10;3.70;;;23.10;73.60;;;;;;5136162;28;20432;-54
2023/06/15 11:48:44;;;;;;;3.20;2.87;;;23.20;98.70;;;;;;5137931;28;20425;-51
2023/06/15 11:51:13;;;;;;;3.50;3.20;;;23.20;76.80;;;;;;5137818;28;20412;-53
2023/06/15 11:53:40;;;;;;;8.13;3.87;;;23.30;98.00;;;;;;5132868;28;20538;-54
2023/06/15 11:56:12;;;;;;;4.10;2.87;;;23.30;91.40;;;;;;5134503;28;20507;-52
2023/06/15 11:58:40;;;;;;;7.40;2.67;;;;;;;;;;5137804;28;20508;-53
2023/06/15 12:01:07;;;;;;;4.90;3.63;;;;;;;;;;5138025;28;20435;-58
2023/06/15 12:03:39;;;;;;;10.10;3.50;;;24.20;98.70;;;;;;5137235;28;20461;-49
2023/06/15 12:06:07;;;;;;;5.27;3.10;;;23.60;72.60;;;;;;5136958;28;20424;-56
2023/06/15 12:08:35;;;;;;;3.43;2.97;;;23.80;98.80;;;;;;5135531;28;20508;-53
2023/06/15 12:11:02;;;;;;;4.70;3.27;;;23.50;94.60;;;;;;5137515;28;20428;-55
2023/06/15 12:13:30;;;;;;;8.53;3.60;;;24.00;94.70;;;;;;5137044;28;20445;-56
2023/06/15 12:16:00;;;;;;;5.23;3.50;;;23.80;73.10;;;;;;5137375;28;20503;-54
2023/06/15 12:18:27;;;;;;;4.30;3.47;;;;;;;;;;5137076;28;20444;-51
2023/06/15 12:20:55;;;;;;;3.77;3.20;;;;;;;;;;5136784;28;20469;-55
2023/06/15 12:23:29;;;;;;;3.33;3.03;;;23.80;98.10;;;;;;5136793;28;20491;-53
2023/06/15 12:25:57;;;;;;;4.50;3.40;;;24.40;98.00;;;;;;5135749;28;20512;-52
2023/06/15 12:28:27;;;;;;;3.30;3.00;;;24.40;94.50;;;;;;5137046;28;20463;-52
2023/06/15 12:31:03;;;;;;;3.50;3.00;;;24.50;68.40;;;;;;5136597;28;20461;-48
2023/06/15 12:33:34;;;;;;;4.13;3.10;;;24.50;87.80;;;;;;5137121;28;20428;-52
2023/06/15 12:36:02;;;;;;;3.30;3.00;;;24.80;92.40;;;;;;5136597;28;20460;-51
2023/06/15 12:38:30;;;;;;;4.77;3.50;;;25.40;96.80;;;;;;5125182;28;20451;-52
2023/06/15 12:40:58;;;;;;;5.33;2.90;;;25.20;94.80;;;;;;5136330;28;20478;-51
2023/06/15 12:43:26;;;;;;;4.27;3.20;;;25.50;92.20;;;;;;5136564;28;20461;-58
2023/06/15 12:45:54;;;;;;;6.00;3.50;;;25.40;95.40;;;;;;5135706;28;20501;-53
2023/06/15 12:48:23;;;;;;;5.00;3.70;;;25.60;96.50;;;;;;5136373;28;20436;-55
2023/06/15 12:50:51;;;;;;;4.10;2.97;;;24.90;96.50;;;;;;5135749;28;20469;-50
2023/06/15 12:53:18;;;;;;;7.13;3.53;;;25.00;94.70;;;;;;5131415;28;20435;-56
2023/06/15 12:55:46;;;;;;;3.83;3.40;;;;;;;;;;5136114;28;20469;-51
2023/06/15 12:58:12;;;;;;;5.77;3.30;;;24.00;93.00;;;;;;5136883;28;20447;-55
2023/06/15 13:00:43;;;;;;;5.40;3.30;;;24.30;96.50;;;;;;5134632;28;20451;-55
2023/06/15 13:03:10;;;;;;;4.63;3.17;;;24.00;95.70;;;;;;5134947;28;20463;-52
2023/06/15 13:05:40;;;;;;;4.07;3.27;;;24.10;68.50;;;;;;5136608;28;20417;-57
2023/06/15 13:08:07;;;;;;;3.93;3.30;;;;;;;;;;5136136;28;20425;-57
2023/06/15 13:10:34;;;;;;;3.87;3.00;;;;;;;;;;5136286;28;20487;-56